Time,TemperatureF,DewpointF,PressureIn,WindDirection,WindDirectionDegrees,WindSpeedMPH,WindSpeedGustMPH,Humidity,HourlyPrecipIn,Conditions,Clouds,dailyrainin,SoftwareType,DateUTC
2013-04-12 09:41:00,59.5,51.2,29.86,West,280,4.0,4.0,74,0.00,NA,NA,-99.99,VWS Version 10.39,2013-04-12 16:41:00,
2013-04-12 09:51:00,59.8,51.5,29.87,West,275,3.0,3.0,74,0.00,NA,NA,-99.99,VWS Version 10.39,2013-04-12 16:51:00,
2013-04-12 09:56:00,59.6,51.3,29.87,West,270,3.0,5.0,74,0.00,NA,NA,-99.99,VWS Version 10.39,2013-04-12 16:56:00,
2013-04-12 10:11:00,60.3,51.6,29.87,SW,225,3.0,4.0,73,0.00,NA,NA,-99.99,VWS Version 10.39,2013-04-12 17:11:00,
2013-04-12 10:16:00,60.9,51.8,29.86,West,279,2.0,4.0,72,0.00,NA,NA,-99.99,VWS Version 10.39,2013-04-12 17:16:00,
2013-04-12 10:21:00,61.2,51.7,29.86,WSW,248,5.0,7.0,71,0.00,NA,NA,-99.99,VWS Version 10.39,2013-04-12 17:21:00,
2013-04-12 10:26:00,61.3,51.8,29.87,SW,218,2.0,4.0,71,0.00,NA,NA,-99.99,VWS Version 10.39,2013-04-12 17:26:00,
2013-04-12 10:31:00,61.4,51.5,29.86,SW,221,2.0,5.0,70,0.00,NA,NA,-99.99,VWS Version 10.39,2013-04-12 17:31:00,
2013-04-12 10:36:00,61.4,51.9,29.86,WNW,300,1.0,2.0,71,0.00,NA,NA,-99.99,VWS Version 10.39,2013-04-12 17:36:00,
2013-04-12 10:51:00,62.0,51.7,29.86,West,264,1.0,3.0,69,0.00,NA,NA,-99.99,VWS Version 10.39,2013-04-12 17:51:00,
2013-04-12 10:56:00,61.9,52.0,29.86,East,100,2.0,2.0,70,0.00,NA,NA,-99.99,VWS Version 10.39,2013-04-12 17:56:00,
2013-04-12 11:01:00,62.2,52.3,29.86,NW,325,2.0,3.0,70,0.00,NA,NA,-99.99,VWS Version 10.39,2013-04-12 18:01:00,
2013-04-12 11:06:00,62.9,52.2,29.86,SW,229,2.0,5.0,68,0.00,NA,NA,-99.99,VWS Version 10.39,2013-04-12 18:06:00,
2013-04-12 11:11:00,63.2,52.5,29.86,ESE,109,1.0,3.0,68,0.00,NA,NA,-99.99,VWS Version 10.39,2013-04-12 18:11:00,
2013-04-12 11:16:00,63.1,52.0,29.86,West,271,5.0,5.0,67,0.00,NA,NA,-99.99,VWS Version 10.39,2013-04-12 18:16:00,
2013-04-12 11:26:00,62.8,52.5,29.86,WSW,256,2.0,3.0,69,0.00,NA,NA,-99.99,VWS Version 10.39,2013-04-12 18:26:00,
2013-04-12 12:41:00,63.3,53.0,29.85,WSW,240,3.0,7.0,69,0.00,NA,NA,-99.99,VWS Version 10.39,2013-04-12 19:41:00,
2013-04-12 12:46:00,63.6,53.3,29.85,SW,230,4.0,7.0,69,0.00,NA,NA,-99.99,VWS Version 10.39,2013-04-12 19:46:00,
2013-04-12 12:56:00,63.6,53.3,29.84,West,279,5.0,5.0,69,0.00,NA,NA,-99.99,VWS Version 10.39,2013-04-12 19:56:00,
2013-04-12 13:31:00,63.7,53.0,29.84,WNW,286,7.0,7.0,68,0.00,NA,NA,-99.99,VWS Version 10.39,2013-04-12 20:31:00,
2013-04-12 13:36:00,63.8,53.5,29.83,NW,306,5.0,6.0,69,0.00,NA,NA,-99.99,VWS Version 10.39,2013-04-12 20:36:00,
2013-04-12 13:41:00,63.4,53.1,29.83,NW,315,4.0,5.0,69,0.00,NA,NA,-99.99,VWS Version 10.39,2013-04-12 20:41:00,
2013-04-12 13:46:00,62.7,52.8,29.83,WNW,300,7.0,8.0,70,0.00,NA,NA,-99.99,VWS Version 10.39,2013-04-12 20:46:00,
2013-04-12 13:51:00,62.7,52.4,29.83,NW,308,7.0,8.0,69,0.00,NA,NA,-99.99,VWS Version 10.39,2013-04-12 20:51:00,
2013-04-12 13:56:00,62.8,52.9,29.83,WNW,284,8.0,8.0,70,0.00,NA,NA,-99.99,VWS Version 10.39,2013-04-12 20:56:00,
2013-04-12 14:11:00,63.0,53.1,29.83,NNW,342,3.0,4.0,70,0.00,NA,NA,-99.99,VWS Version 10.39,2013-04-12 21:11:00,
2013-04-12 14:16:00,63.3,52.6,29.83,NW,312,9.0,9.0,68,0.00,NA,NA,-99.99,VWS Version 10.39,2013-04-12 21:16:00,
2013-04-12 14:21:00,63.2,52.9,29.83,WNW,292,3.0,7.0,69,0.00,NA,NA,-99.99,VWS Version 10.39,2013-04-12 21:21:00,
2013-04-12 14:26:00,63.3,53.0,29.83,NW,318,5.0,8.0,69,0.00,NA,NA,-99.99,VWS Version 10.39,2013-04-12 21:26:00,
2013-04-12 14:31:00,63.1,52.8,29.83,NNW,340,5.0,6.0,69,0.00,NA,NA,-99.99,VWS Version 10.39,2013-04-12 21:31:00,
2013-04-12 14:36:00,63.1,53.2,29.83,WNW,282,5.0,9.0,70,0.00,NA,NA,-99.99,VWS Version 10.39,2013-04-12 21:36:00,
2013-04-12 14:41:00,62.9,53.0,29.83,NNW,342,5.0,5.0,70,0.00,NA,NA,-99.99,VWS Version 10.39,2013-04-12 21:41:00,
2013-04-12 14:46:00,63.0,53.1,29.82,SSW,209,5.0,9.0,70,0.00,NA,NA,-99.99,VWS Version 10.39,2013-04-12 21:46:00,
2013-04-12 14:51:00,63.6,53.3,29.82,NW,313,7.0,9.0,69,0.00,NA,NA,-99.99,VWS Version 10.39,2013-04-12 21:51:00,
2013-04-12 14:56:00,63.0,53.1,29.82,West,279,7.0,9.0,70,0.00,NA,NA,-99.99,VWS Version 10.39,2013-04-12 21:56:00,
2013-04-12 15:26:00,62.1,53.0,29.81,West,281,4.0,6.0,72,0.00,NA,NA,-99.99,VWS Version 10.39,2013-04-12 22:26:00,
2013-04-12 15:31:00,62.3,53.5,29.81,West,278,2.0,3.0,73,0.00,NA,NA,-99.99,VWS Version 10.39,2013-04-12 22:31:00,
2013-04-12 15:41:00,62.6,53.5,29.81,WNW,287,4.0,5.0,72,0.00,NA,NA,-99.99,VWS Version 10.39,2013-04-12 22:41:00,
2013-04-12 15:46:00,62.5,53.4,29.81,West,273,8.0,8.0,72,0.00,NA,NA,-99.99,VWS Version 10.39,2013-04-12 22:46:00,
2013-04-12 15:51:00,62.8,53.7,29.81,WNW,283,7.0,7.0,72,0.00,NA,NA,-99.99,VWS Version 10.39,2013-04-12 22:51:00,
2013-04-12 15:56:00,62.9,53.8,29.81,WNW,303,3.0,9.0,72,0.00,NA,NA,-99.99,VWS Version 10.39,2013-04-12 22:56:00,
2013-04-12 16:06:00,61.7,53.3,29.80,WSW,257,5.0,11.0,74,0.00,NA,NA,-99.99,VWS Version 10.39,2013-04-12 23:06:00,
2013-04-12 16:11:00,61.8,53.8,29.80,West,267,5.0,7.0,75,0.00,NA,NA,-99.99,VWS Version 10.39,2013-04-12 23:11:00,
2013-04-12 16:21:00,61.8,53.4,29.80,SSW,211,7.0,7.0,74,0.00,NA,NA,-99.99,VWS Version 10.39,2013-04-12 23:21:00,
2013-04-12 16:26:00,61.5,53.9,29.80,West,274,8.0,8.0,76,0.00,NA,NA,-99.99,VWS Version 10.39,2013-04-12 23:26:00,
2013-04-12 16:31:00,62.2,53.8,29.80,West,263,6.0,9.0,74,0.00,NA,NA,-99.99,VWS Version 10.39,2013-04-12 23:31:00,
2013-04-12 16:36:00,62.2,53.8,29.80,NNW,336,5.0,7.0,74,0.00,NA,NA,-99.99,VWS Version 10.39,2013-04-12 23:36:00,
2013-04-12 16:41:00,62.2,53.8,29.80,South,188,4.0,4.0,74,0.00,NA,NA,-99.99,VWS Version 10.39,2013-04-12 23:41:00,
2013-04-12 16:46:00,61.8,53.8,29.80,NW,321,6.0,8.0,75,0.00,NA,NA,-99.99,VWS Version 10.39,2013-04-12 23:46:00,
2013-04-12 16:51:00,61.8,53.8,29.79,WNW,294,8.0,8.0,75,0.00,NA,NA,-99.99,VWS Version 10.39,2013-04-12 23:51:00,
2013-04-12 16:56:00,61.8,53.8,29.79,WSW,246,6.0,7.0,75,0.00,NA,NA,-99.99,VWS Version 10.39,2013-04-12 23:56:00,
2013-04-12 17:06:00,61.5,53.9,29.80,NW,315,5.0,6.0,76,0.00,NA,NA,-99.99,VWS Version 10.39,2013-04-13 00:06:00,
2013-04-12 17:11:00,61.4,53.8,29.79,North,351,1.0,3.0,76,0.00,NA,NA,-99.99,VWS Version 10.39,2013-04-13 00:11:00,
2013-04-12 17:16:00,61.6,54.3,29.79,West,259,5.0,5.0,77,0.00,NA,NA,-99.99,VWS Version 10.39,2013-04-13 00:16:00,
2013-04-12 17:21:00,61.9,54.6,29.79,West,278,3.0,6.0,77,0.00,NA,NA,-99.99,VWS Version 10.39,2013-04-13 00:21:00,
2013-04-12 17:26:00,62.0,54.4,29.79,NW,325,3.0,4.0,76,0.00,NA,NA,-99.99,VWS Version 10.39,2013-04-13 00:26:00,
2013-04-12 17:31:00,61.6,54.3,29.80,West,272,2.0,3.0,77,0.00,NA,NA,-99.99,VWS Version 10.39,2013-04-13 00:31:00,
2013-04-12 17:36:00,61.5,54.2,29.80,SSW,209,4.0,6.0,77,0.00,NA,NA,-99.99,VWS Version 10.39,2013-04-13 00:36:00,
2013-04-12 17:41:00,61.4,54.5,29.80,South,181,4.0,7.0,78,0.00,NA,NA,-99.99,VWS Version 10.39,2013-04-13 00:41:00,
2013-04-12 17:46:00,60.8,53.9,29.80,NNW,337,3.0,4.0,78,0.00,NA,NA,-99.99,VWS Version 10.39,2013-04-13 00:46:00,
2013-04-12 17:51:00,60.8,53.9,29.80,West,277,5.0,8.0,78,0.00,NA,NA,-99.99,VWS Version 10.39,2013-04-13 00:51:00,
2013-04-12 17:56:00,60.7,53.8,29.80,NW,315,5.0,8.0,78,0.00,NA,NA,-99.99,VWS Version 10.39,2013-04-13 00:56:00,
2013-04-12 18:01:00,60.7,54.2,29.80,NNW,331,4.0,4.0,79,0.00,NA,NA,-99.99,VWS Version 10.39,2013-04-13 01:01:00,
2013-04-12 18:06:00,60.5,54.0,29.80,WNW,288,9.0,9.0,79,0.00,NA,NA,-99.99,VWS Version 10.39,2013-04-13 01:06:00,
2013-04-12 18:46:00,58.6,53.1,29.81,WNW,303,4.0,5.0,82,0.00,NA,NA,-99.99,VWS Version 10.39,2013-04-13 01:46:00,
2013-04-12 18:51:00,58.3,53.5,29.81,SSW,197,4.0,4.0,84,0.00,NA,NA,-99.99,VWS Version 10.39,2013-04-13 01:51:00,
2013-04-12 18:56:00,58.2,53.4,29.81,North,355,4.0,4.0,84,0.00,NA,NA,-99.99,VWS Version 10.39,2013-04-13 01:56:00,
2013-04-12 19:11:00,57.5,53.0,29.82,NW,325,2.0,4.0,85,0.00,NA,NA,-99.99,VWS Version 10.39,2013-04-13 02:11:00,
2013-04-12 19:16:00,57.4,52.9,29.82,West,270,5.0,7.0,85,0.00,NA,NA,-99.99,VWS Version 10.39,2013-04-13 02:16:00,
2013-04-12 19:21:00,57.2,53.1,29.83,West,276,4.0,4.0,86,0.00,NA,NA,-99.99,VWS Version 10.39,2013-04-13 02:21:00,
2013-04-12 19:26:00,57.1,53.0,29.83,WNW,301,4.0,7.0,86,0.00,NA,NA,-99.99,VWS Version 10.39,2013-04-13 02:26:00,
2013-04-12 19:36:00,57.0,53.2,29.84,NW,319,3.0,4.0,87,0.00,NA,NA,-99.99,VWS Version 10.39,2013-04-13 02:36:00,
2013-04-12 19:41:00,56.9,53.1,29.84,WNW,285,3.0,3.0,87,0.00,NA,NA,-99.99,VWS Version 10.39,2013-04-13 02:41:00,
2013-04-12 19:46:00,56.9,53.1,29.84,NW,317,2.0,3.0,87,0.00,NA,NA,-99.99,VWS Version 10.39,2013-04-13 02:46:00,
2013-04-12 19:51:00,56.9,53.1,29.85,WNW,289,3.0,3.0,87,0.00,NA,NA,-99.99,VWS Version 10.39,2013-04-13 02:51:00,
2013-04-12 19:56:00,56.8,53.0,29.85,WSW,250,3.0,3.0,87,0.00,NA,NA,-99.99,VWS Version 10.39,2013-04-13 02:56:00,
2013-04-12 20:06:00,56.7,53.2,29.85,WNW,291,3.0,4.0,88,0.00,NA,NA,-99.99,VWS Version 10.39,2013-04-13 03:06:00,
2013-04-12 20:11:00,56.6,53.1,29.85,WNW,284,1.0,3.0,88,0.00,NA,NA,-99.99,VWS Version 10.39,2013-04-13 03:11:00,
2013-04-12 20:16:00,56.5,53.0,29.85,WNW,290,2.0,2.0,88,0.00,NA,NA,-99.99,VWS Version 10.39,2013-04-13 03:16:00,
2013-04-12 20:21:00,56.5,53.0,29.86,WNW,298,0.0,0.0,88,0.00,NA,NA,-99.99,VWS Version 10.39,2013-04-13 03:21:00,
2013-04-12 20:26:00,56.6,53.1,29.86,WNW,296,2.0,2.0,88,0.00,NA,NA,-99.99,VWS Version 10.39,2013-04-13 03:26:00,
2013-04-12 20:31:00,56.5,53.0,29.86,WSW,252,0.0,1.0,88,0.00,NA,NA,-99.99,VWS Version 10.39,2013-04-13 03:31:00,
2013-04-12 20:41:00,56.4,52.9,29.87,WNW,287,1.0,3.0,88,0.00,NA,NA,-99.99,VWS Version 10.39,2013-04-13 03:41:00,
2013-04-12 20:51:00,56.4,53.2,29.87,West,270,0.0,1.0,89,0.00,NA,NA,-99.99,VWS Version 10.39,2013-04-13 03:51:00,
2013-04-12 20:56:00,56.4,53.2,29.88,WSW,244,0.0,1.0,89,0.00,NA,NA,-99.99,VWS Version 10.39,2013-04-13 03:56:00,
2013-04-12 21:16:00,56.6,53.4,29.88,NW,323,1.0,1.0,89,0.00,NA,NA,-99.99,VWS Version 10.39,2013-04-13 04:16:00,
2013-04-12 21:21:00,56.6,53.4,29.88,WNW,296,1.0,1.0,89,0.00,NA,NA,-99.99,VWS Version 10.39,2013-04-13 04:21:00,
2013-04-12 21:31:00,56.7,53.5,29.88,West,263,1.0,1.0,89,0.00,NA,NA,-99.99,VWS Version 10.39,2013-04-13 04:31:00,
2013-04-12 21:36:00,56.7,53.5,29.89,West,275,0.0,1.0,89,0.00,NA,NA,-99.99,VWS Version 10.39,2013-04-13 04:36:00,
2013-04-12 21:41:00,56.7,53.2,29.89,SW,219,0.0,0.0,88,0.00,NA,NA,-99.99,VWS Version 10.39,2013-04-13 04:41:00,
2013-04-12 21:46:00,56.7,53.2,29.89,SW,219,0.0,0.0,88,0.00,NA,NA,-99.99,VWS Version 10.39,2013-04-13 04:46:00,
2013-04-12 21:51:00,56.7,52.9,29.89,SW,219,0.0,0.0,87,0.00,NA,NA,-99.99,VWS Version 10.39,2013-04-13 04:51:00,
2013-04-12 21:56:00,56.7,52.9,29.89,SW,236,2.0,2.0,87,0.00,NA,NA,-99.99,VWS Version 10.39,2013-04-13 04:56:00,
2013-04-12 22:06:00,56.8,53.0,29.89,WSW,257,1.0,2.0,87,0.00,NA,NA,-99.99,VWS Version 10.39,2013-04-13 05:06:00,
2013-04-12 22:11:00,56.8,53.0,29.89,West,279,2.0,2.0,87,0.00,NA,NA,-99.99,VWS Version 10.39,2013-04-13 05:11:00,
2013-04-12 22:16:00,56.8,53.0,29.90,WSW,253,1.0,1.0,87,0.00,NA,NA,-99.99,VWS Version 10.39,2013-04-13 05:16:00,
2013-04-12 22:21:00,56.8,53.0,29.90,WSW,253,0.0,0.0,87,0.00,NA,NA,-99.99,VWS Version 10.39,2013-04-13 05:21:00,
2013-04-12 22:36:00,56.9,53.1,29.90,South,178,3.0,4.0,87,0.00,NA,NA,-99.99,VWS Version 10.39,2013-04-13 05:36:00,
2013-04-12 22:41:00,57.0,52.9,29.89,SSW,192,1.0,1.0,86,0.00,NA,NA,-99.99,VWS Version 10.39,2013-04-13 05:41:00,
2013-04-12 22:46:00,57.0,53.2,29.90,SSE,157,3.0,4.0,87,0.00,NA,NA,-99.99,VWS Version 10.39,2013-04-13 05:46:00,
2013-04-12 22:51:00,57.1,53.0,29.90,SSE,160,0.0,1.0,86,0.00,NA,NA,-99.99,VWS Version 10.39,2013-04-13 05:51:00,
2013-04-12 22:56:00,57.1,53.0,29.90,SSE,159,1.0,1.0,86,0.00,NA,NA,-99.99,VWS Version 10.39,2013-04-13 05:56:00,
2013-04-12 23:21:00,57.4,53.2,29.90,SSE,157,2.0,4.0,86,0.00,NA,NA,-99.99,VWS Version 10.39,2013-04-13 06:21:00,